createdAt,value
2019-06-08T00:01:12.242Z,1.05
2019-06-08T00:03:38.641Z,0.85
2019-06-08T00:06:05.235Z,1.45
2019-06-08T00:08:31.629Z,1.27
2019-06-08T00:10:58.035Z,0.85
2019-06-08T00:13:24.329Z,0.90
2019-06-08T00:15:51.150Z,0.93
2019-06-08T00:18:17.811Z,1.00
2019-06-08T00:20:44.260Z,0.93
2019-06-08T00:23:10.636Z,1.05
2019-06-08T00:25:37.387Z,1.05
2019-06-08T00:28:04.861Z,0.93
2019-06-08T00:30:31.300Z,1.15
2019-06-08T00:32:57.818Z,1.02
2019-06-08T00:35:24.912Z,1.00
2019-06-08T00:37:51.728Z,1.05
2019-06-08T00:40:18.914Z,0.90
2019-06-08T00:42:45.275Z,0.90
2019-06-08T00:45:12.238Z,0.80
2019-06-08T00:47:47.464Z,1.02
2019-06-08T00:50:07.417Z,1.00
2019-06-08T00:52:33.767Z,0.90
2019-06-08T00:55:00.117Z,0.90
2019-06-08T00:57:26.555Z,0.85
2019-06-08T00:59:53.042Z,0.70
2019-06-08T01:02:20.388Z,1.10
2019-06-08T01:04:47.477Z,0.98
2019-06-08T01:07:13.923Z,0.93
2019-06-08T01:09:40.254Z,0.90
2019-06-08T01:12:06.629Z,1.10
2019-06-08T01:14:33.155Z,0.85
2019-06-08T01:16:59.548Z,1.15
2019-06-08T01:19:25.783Z,1.40
2019-06-08T01:21:52.062Z,1.10
2019-06-08T01:24:19.671Z,1.10
2019-06-08T01:26:46.131Z,0.78
2019-06-08T01:29:12.352Z,1.00
2019-06-08T01:31:38.669Z,1.30
2019-06-08T01:34:05.119Z,0.93
2019-06-08T01:36:31.503Z,1.07
2019-06-08T01:38:57.910Z,0.98
2019-06-08T01:41:25.446Z,0.98
2019-06-08T01:43:51.973Z,0.78
2019-06-08T01:46:18.505Z,0.82
2019-06-08T01:48:44.923Z,0.83
2019-06-08T01:51:11.488Z,1.00
2019-06-08T01:53:37.699Z,0.50
2019-06-08T01:56:03.992Z,0.70
2019-06-08T01:58:31.453Z,0.68
2019-06-08T02:00:58.018Z,0.90
2019-06-08T02:03:24.421Z,0.90
2019-06-08T02:05:50.821Z,1.20
2019-06-08T02:08:17.190Z,0.88
2019-06-08T02:10:43.838Z,0.90
2019-06-08T02:13:10.157Z,0.85
2019-06-08T02:15:36.388Z,0.70
2019-06-08T02:18:02.839Z,0.93
2019-06-08T02:20:30.750Z,0.72
2019-06-08T02:22:57.453Z,0.78
2019-06-08T02:25:27.443Z,0.70
2019-06-08T02:27:54.687Z,1.12
2019-06-08T02:30:21.504Z,0.88
2019-06-08T02:32:47.929Z,0.85
2019-06-08T02:35:15.712Z,1.10
2019-06-08T02:37:42.029Z,1.30
2019-06-08T02:40:08.483Z,0.80
2019-06-08T02:42:36.994Z,1.12
2019-06-08T02:45:04.881Z,0.70
2019-06-08T02:47:32.582Z,0.90
2019-06-08T02:49:59.495Z,0.80
2019-06-08T02:52:27.191Z,0.70
2019-06-08T02:54:54.448Z,1.10
2019-06-08T02:57:23.636Z,1.15
2019-06-08T02:59:52.938Z,0.80
2019-06-08T03:02:20.067Z,0.68
2019-06-08T03:04:46.869Z,0.70
2019-06-08T03:07:15.139Z,1.10
2019-06-08T03:09:43.650Z,1.05
2019-06-08T03:12:09.875Z,0.98
2019-06-08T03:14:39.634Z,0.90
2019-06-08T03:17:06.373Z,1.00
2019-06-08T03:19:33.335Z,1.00
2019-06-08T03:21:59.882Z,0.88
2019-06-08T03:24:26.126Z,1.05
2019-06-08T03:26:52.767Z,1.25
2019-06-08T03:29:19.197Z,1.07
2019-06-08T03:31:54.244Z,1.32
2019-06-08T03:34:14.163Z,1.00
2019-06-08T03:36:53.617Z,0.80
2019-06-08T03:39:09.980Z,0.88
2019-06-08T03:41:38.272Z,0.93
2019-06-08T03:44:04.538Z,1.02
2019-06-08T03:46:31.090Z,0.70
2019-06-08T03:48:57.704Z,1.10
2019-06-08T03:51:24.200Z,0.90
2019-06-08T03:53:50.525Z,1.10
2019-06-08T03:56:16.973Z,1.07
2019-06-08T03:58:44.983Z,1.47
2019-06-08T04:01:11.483Z,1.10
2019-06-08T04:03:38.147Z,0.90
2019-06-08T04:06:06.078Z,1.02
2019-06-08T04:08:32.694Z,1.00
2019-06-08T04:10:59.135Z,0.90
2019-06-08T04:13:25.810Z,0.72
2019-06-08T04:15:52.171Z,0.98
2019-06-08T04:18:18.848Z,1.00
2019-06-08T04:20:46.524Z,0.70
2019-06-08T04:23:13.459Z,1.02
2019-06-08T04:25:40.652Z,1.10
2019-06-08T04:28:07.961Z,1.05
2019-06-08T04:30:34.371Z,0.88
2019-06-08T04:33:00.841Z,0.72
2019-06-08T04:35:27.250Z,0.80
2019-06-08T04:37:54.090Z,1.10
2019-06-08T04:40:20.908Z,0.82
2019-06-08T04:42:49.409Z,1.10
2019-06-08T04:45:15.780Z,1.10
2019-06-08T04:47:43.612Z,1.17
2019-06-08T04:50:22.879Z,0.80
2019-06-08T04:52:40.795Z,0.70
2019-06-08T04:55:07.819Z,1.10
2019-06-08T04:57:34.156Z,0.90
2019-06-08T05:00:10.697Z,1.12
2019-06-08T05:02:28.838Z,0.80
2019-06-08T05:04:55.370Z,0.90
2019-06-08T05:07:21.719Z,0.75
2019-06-08T05:09:49.474Z,1.37
2019-06-08T05:12:16.096Z,1.20
2019-06-08T05:14:43.031Z,1.00
2019-06-08T05:17:09.513Z,1.00
2019-06-08T05:19:36.054Z,1.03
2019-06-08T05:22:02.701Z,0.90
2019-06-08T05:24:29.119Z,0.85
2019-06-08T05:26:55.507Z,1.20
2019-06-08T05:29:22.104Z,0.82
2019-06-08T05:31:49.769Z,0.72
2019-06-08T05:34:16.464Z,0.60
2019-06-08T05:36:43.382Z,1.02
2019-06-08T05:39:10.063Z,0.88
2019-06-08T05:41:36.523Z,1.47
2019-06-08T05:44:03.593Z,1.10
2019-06-08T05:46:29.870Z,0.75
2019-06-08T05:48:56.186Z,0.78
2019-06-08T05:51:22.933Z,1.10
2019-06-08T05:53:50.168Z,1.00
2019-06-08T05:56:16.947Z,1.10
2019-06-08T05:58:43.936Z,0.82
2019-06-08T06:01:10.300Z,0.90
2019-06-08T06:03:36.589Z,0.88
2019-06-08T06:06:03.249Z,1.32
2019-06-08T06:08:30.693Z,0.83
2019-06-08T06:10:57.134Z,0.75
2019-06-08T06:13:23.508Z,0.90
2019-06-08T06:15:51.534Z,1.00
2019-06-08T06:18:18.146Z,1.25
2019-06-08T06:20:45.359Z,1.10
2019-06-08T06:23:11.973Z,1.00
2019-06-08T06:25:38.264Z,0.85
2019-06-08T06:28:06.363Z,1.17
2019-06-08T06:30:32.951Z,0.90
2019-06-08T06:32:59.508Z,1.02
2019-06-08T06:35:26.199Z,1.17
2019-06-08T06:37:52.837Z,1.40
2019-06-08T06:40:19.309Z,1.00
2019-06-08T06:42:46.023Z,1.15
2019-06-08T06:45:12.666Z,1.10
2019-06-08T06:47:39.584Z,1.40
2019-06-08T06:50:07.843Z,1.10
2019-06-08T06:52:34.340Z,1.12
2019-06-08T06:55:00.816Z,1.22
2019-06-08T06:57:28.019Z,1.03
2019-06-08T06:59:54.589Z,1.20
2019-06-08T07:02:21.219Z,0.93
2019-06-08T07:04:48.193Z,0.90
2019-06-08T07:07:14.905Z,1.40
2019-06-08T07:09:41.314Z,0.98
2019-06-08T07:12:07.874Z,0.70
2019-06-08T07:14:34.851Z,1.22
2019-06-08T07:17:01.573Z,1.07
2019-06-08T07:19:28.041Z,1.10
2019-06-08T07:21:54.953Z,1.12
2019-06-08T07:24:21.323Z,1.20
2019-06-08T07:26:48.255Z,1.00
2019-06-08T07:29:14.685Z,1.30
2019-06-08T07:31:40.912Z,1.60
2019-06-08T07:34:07.307Z,1.62
2019-06-08T07:36:33.795Z,1.37
2019-06-08T07:39:00.279Z,1.20
2019-06-08T07:41:26.531Z,0.93
2019-06-08T07:43:54.424Z,1.15
2019-06-08T07:46:20.892Z,0.93
2019-06-08T07:48:48.091Z,1.30
2019-06-08T07:51:14.559Z,1.27
2019-06-08T07:53:40.938Z,1.10
2019-06-08T07:56:07.708Z,1.10
2019-06-08T07:58:34.058Z,1.27
2019-06-08T08:01:07.730Z,1.20
2019-06-08T08:03:28.558Z,0.95
2019-06-08T08:05:55.422Z,1.30
2019-06-08T08:08:23.278Z,1.23
2019-06-08T08:10:50.355Z,1.22
2019-06-08T08:13:17.045Z,1.37
2019-06-08T08:15:44.448Z,1.47
2019-06-08T08:18:10.889Z,1.57
2019-06-08T08:20:37.533Z,0.98
2019-06-08T08:23:06.245Z,1.47
2019-06-08T08:25:32.434Z,1.17
2019-06-08T08:28:00.692Z,1.17
2019-06-08T08:30:28.455Z,1.12
2019-06-08T08:32:56.244Z,1.12
2019-06-08T08:35:23.285Z,1.30
2019-06-08T08:37:53.125Z,1.30
2019-06-08T08:40:18.580Z,1.52
2019-06-08T08:42:44.977Z,1.70
2019-06-08T08:45:12.000Z,0.80
2019-06-08T08:47:38.893Z,1.37
2019-06-08T08:50:07.431Z,1.02
2019-06-08T08:52:37.427Z,1.62
2019-06-08T08:55:03.708Z,1.27
2019-06-08T08:57:30.181Z,1.22
2019-06-08T09:00:01.025Z,1.07
2019-06-08T09:02:25.010Z,1.50
2019-06-08T09:04:52.127Z,1.55
2019-06-08T09:07:19.996Z,1.45
2019-06-08T09:09:48.259Z,1.60
2019-06-08T09:12:14.669Z,1.47
2019-06-08T09:14:41.503Z,1.55
2019-06-08T09:17:08.777Z,1.20
2019-06-08T09:19:37.994Z,1.62
2019-06-08T09:22:04.020Z,1.55
2019-06-08T09:24:31.560Z,1.10
2019-06-08T09:27:00.890Z,1.72
2019-06-08T09:29:28.915Z,1.40
2019-06-08T09:31:55.946Z,1.62
2019-06-08T09:34:24.051Z,1.20
2019-06-08T09:36:50.610Z,1.12
2019-06-08T09:39:18.607Z,1.60
2019-06-08T09:41:47.751Z,1.50
2019-06-08T09:44:13.847Z,1.17
2019-06-08T09:46:40.583Z,1.10
2019-06-08T09:49:10.995Z,1.72
2019-06-08T09:51:37.759Z,1.50
2019-06-08T09:54:06.103Z,1.57
2019-06-08T09:56:32.131Z,1.65
2019-06-08T09:59:02.773Z,1.87
2019-06-08T10:01:28.614Z,1.52
2019-06-08T10:03:56.727Z,1.90
2019-06-08T10:06:23.479Z,1.15
2019-06-08T10:08:50.052Z,1.62
2019-06-08T10:11:16.737Z,1.52
2019-06-08T10:13:43.569Z,1.60
2019-06-08T10:16:10.947Z,1.37
2019-06-08T10:18:38.616Z,1.67
2019-06-08T10:21:06.311Z,1.20
2019-06-08T10:23:34.802Z,1.27
2019-06-08T10:26:02.903Z,1.25
2019-06-08T10:28:29.671Z,1.10
2019-06-08T10:30:59.645Z,1.35
2019-06-08T10:33:24.607Z,1.22
2019-06-08T10:35:50.952Z,1.60
2019-06-08T10:38:18.122Z,2.50
2019-06-08T10:41:06.956Z,0.93
2019-06-08T10:43:28.851Z,1.00
2019-06-08T10:45:59.717Z,1.40
2019-06-08T10:48:27.520Z,1.30
2019-06-08T10:50:53.482Z,1.52
2019-06-08T10:53:20.142Z,1.20
2019-06-08T10:55:48.175Z,1.52
2019-06-08T10:58:14.715Z,1.40
2019-06-08T11:00:41.326Z,1.57
2019-06-08T11:03:10.583Z,1.20
2019-06-08T11:05:36.345Z,1.30
2019-06-08T11:08:04.531Z,1.85
2019-06-08T11:10:31.880Z,1.15
2019-06-08T11:13:03.069Z,1.30
2019-06-08T11:15:29.396Z,1.37
2019-06-08T11:17:58.146Z,1.40
2019-06-08T11:20:23.803Z,1.27
2019-06-08T11:22:50.382Z,1.40
2019-06-08T11:25:19.767Z,1.60
2019-06-08T11:27:47.402Z,1.25
2019-06-08T11:30:23.420Z,1.30
2019-06-08T11:32:42.598Z,1.20
2019-06-08T11:35:12.350Z,1.20
2019-06-08T11:37:38.703Z,1.00
2019-06-08T11:40:11.861Z,1.27
2019-06-08T11:42:38.636Z,1.40
2019-06-08T11:45:09.111Z,1.87
2019-06-08T11:47:34.479Z,1.50
2019-06-08T11:50:02.822Z,1.35
2019-06-08T11:52:29.660Z,1.60
2019-06-08T11:54:57.327Z,2.65
2019-06-08T11:57:24.734Z,1.57
2019-06-08T11:59:51.334Z,1.55
2019-06-08T12:02:18.482Z,1.30
2019-06-08T12:04:44.968Z,1.62
2019-06-08T12:07:12.742Z,1.20
2019-06-08T12:09:39.604Z,1.32
2019-06-08T12:12:09.071Z,1.57
2019-06-08T12:14:34.485Z,1.40
2019-06-08T12:17:01.407Z,1.50
2019-06-08T12:19:28.346Z,1.22
2019-06-08T12:21:57.998Z,1.20
2019-06-08T12:24:40.520Z,1.20
2019-06-08T12:27:00.013Z,1.27
2019-06-08T12:29:21.159Z,1.20
2019-06-08T12:31:47.578Z,1.20
2019-06-08T12:34:13.786Z,1.20
2019-06-08T12:36:39.994Z,1.12
2019-06-08T12:39:07.793Z,1.40
2019-06-08T12:41:34.190Z,1.25
2019-06-08T12:44:00.680Z,1.50
2019-06-08T12:46:27.961Z,1.32
2019-06-08T12:48:54.992Z,1.45
2019-06-08T12:51:21.729Z,1.70
2019-06-08T12:53:48.536Z,1.40
2019-06-08T12:56:18.656Z,1.52
2019-06-08T12:58:43.498Z,1.07
2019-06-08T13:01:11.045Z,1.30
2019-06-08T13:03:38.025Z,1.30
2019-06-08T13:06:04.469Z,1.40
2019-06-08T13:08:30.868Z,1.30
2019-06-08T13:10:57.480Z,1.47
2019-06-08T13:13:28.066Z,1.27
2019-06-08T13:15:53.866Z,1.30
2019-06-08T13:18:21.483Z,1.42
2019-06-08T13:20:51.374Z,1.52
2019-06-08T13:23:19.580Z,1.42
2019-06-08T13:25:44.510Z,1.60
2019-06-08T13:28:15.184Z,1.72
2019-06-08T13:30:39.228Z,1.70
2019-06-08T13:33:07.933Z,1.52
2019-06-08T13:35:34.222Z,2.00
2019-06-08T13:38:00.489Z,1.52
2019-06-08T13:40:27.042Z,1.80
2019-06-08T13:42:53.503Z,2.17
2019-06-08T13:45:21.755Z,2.17
2019-06-08T13:47:50.521Z,2.40
2019-06-08T13:50:20.351Z,1.92
2019-06-08T13:52:48.336Z,2.37
2019-06-08T13:55:32.787Z,2.35
2019-06-08T13:57:42.873Z,2.72
2019-06-08T14:00:10.352Z,2.15
2019-06-08T14:02:36.779Z,1.98
2019-06-08T14:05:08.169Z,1.80
2019-06-08T14:07:37.883Z,1.95
2019-06-08T14:10:05.662Z,1.55
2019-06-08T14:12:32.046Z,1.80
2019-06-08T14:14:58.527Z,1.77
2019-06-08T14:17:25.881Z,2.08
2019-06-08T14:19:53.242Z,2.10
2019-06-08T14:22:22.606Z,1.67
2019-06-08T14:24:48.080Z,1.52
2019-06-08T14:27:14.298Z,1.67
2019-06-08T14:29:40.718Z,1.95
2019-06-08T14:32:07.857Z,1.55
2019-06-08T14:34:34.936Z,2.42
2019-06-08T14:37:01.508Z,2.60
2019-06-08T14:39:31.092Z,2.45
2019-06-08T14:41:57.786Z,2.08
2019-06-08T14:44:24.404Z,2.30
2019-06-08T14:46:51.093Z,1.70
2019-06-08T14:49:18.314Z,1.77
2019-06-08T14:51:49.012Z,1.70
2019-06-08T14:54:18.708Z,2.02
2019-06-08T14:56:47.460Z,1.55
2019-06-08T14:59:15.181Z,2.00
2019-06-08T15:01:42.967Z,1.85
2019-06-08T15:04:10.934Z,2.12
2019-06-08T15:06:38.547Z,1.90
2019-06-08T15:09:05.402Z,2.00
2019-06-08T15:11:35.163Z,2.10
2019-06-08T15:14:01.791Z,1.70
2019-06-08T15:16:32.446Z,2.02
2019-06-08T15:19:00.255Z,2.12
2019-06-08T15:21:32.648Z,1.90
2019-06-08T15:23:57.882Z,2.15
2019-06-08T15:26:32.818Z,1.98
2019-06-08T15:28:55.085Z,1.70
2019-06-08T15:31:23.175Z,1.47
2019-06-08T15:33:50.598Z,1.87
2019-06-08T15:36:20.262Z,1.87
2019-06-08T15:38:48.006Z,2.02
2019-06-08T15:41:14.948Z,1.60
2019-06-08T15:43:41.260Z,1.95
2019-06-08T15:46:08.668Z,1.70
2019-06-08T15:48:35.234Z,1.37
2019-06-08T15:51:02.162Z,1.63
2019-06-08T15:53:29.764Z,2.00
2019-06-08T15:55:58.353Z,1.75
2019-06-08T15:58:24.863Z,2.10
2019-06-08T16:00:55.465Z,2.40
2019-06-08T16:03:20.073Z,4.40
2019-06-08T16:05:46.624Z,3.45
2019-06-08T16:08:13.272Z,2.07
2019-06-08T16:10:39.820Z,2.15
2019-06-08T16:13:06.338Z,1.50
2019-06-08T16:15:33.424Z,1.72
2019-06-08T16:18:00.881Z,1.65
2019-06-08T16:20:27.987Z,1.60
2019-06-08T16:22:54.646Z,2.00
2019-06-08T16:25:21.028Z,6.30
2019-06-08T16:27:47.858Z,12.18
2019-06-08T16:30:14.982Z,11.00
2019-06-08T16:32:41.724Z,3.70
2019-06-08T16:35:08.531Z,3.55
2019-06-08T16:37:35.696Z,5.35
2019-06-08T16:40:04.557Z,3.62
2019-06-08T16:42:30.932Z,3.25
2019-06-08T16:44:57.386Z,2.70
2019-06-08T16:47:23.745Z,2.02
2019-06-08T16:49:50.285Z,1.67
2019-06-08T16:52:17.401Z,2.27
2019-06-08T16:54:44.370Z,3.02
2019-06-08T16:57:11.386Z,3.02
2019-06-08T16:59:38.688Z,1.72
2019-06-08T17:02:05.602Z,1.35
2019-06-08T17:04:33.228Z,1.30
2019-06-08T17:07:00.384Z,2.50
2019-06-08T17:09:26.864Z,4.92
2019-06-08T17:11:54.562Z,3.40
2019-06-08T17:14:24.794Z,3.12
2019-06-08T17:16:50.287Z,2.45
2019-06-08T17:19:16.980Z,1.70
2019-06-08T17:21:43.852Z,1.20
2019-06-08T17:24:10.293Z,1.20
2019-06-08T17:26:36.857Z,1.10
2019-06-08T17:29:03.824Z,1.02
2019-06-08T17:31:31.105Z,1.45
2019-06-08T17:33:57.511Z,1.10
2019-06-08T17:36:24.206Z,1.40
2019-06-08T17:38:50.989Z,1.10
2019-06-08T17:41:17.734Z,0.75
2019-06-08T17:43:44.510Z,1.02
2019-06-08T17:46:10.914Z,1.30
2019-06-08T17:48:38.678Z,1.00
2019-06-08T17:51:06.022Z,0.85
2019-06-08T17:53:32.757Z,1.20
2019-06-08T17:55:59.486Z,0.98
2019-06-08T17:58:26.427Z,1.07
2019-06-08T18:00:54.113Z,1.15
2019-06-08T18:03:22.376Z,1.35
2019-06-08T18:05:49.914Z,1.15
2019-06-08T18:08:17.471Z,1.37
2019-06-08T18:10:44.543Z,1.15
2019-06-08T18:13:11.420Z,1.20
2019-06-08T18:15:39.080Z,1.10
2019-06-08T18:18:08.554Z,1.02
2019-06-08T18:20:34.597Z,1.30
2019-06-08T18:23:01.320Z,1.35
2019-06-08T18:25:28.128Z,1.30
2019-06-08T18:28:08.202Z,1.80
2019-06-08T18:30:23.324Z,1.10
2019-06-08T18:32:49.907Z,1.47
2019-06-08T18:35:18.251Z,1.40
2019-06-08T18:37:46.181Z,2.12
2019-06-08T18:40:14.957Z,1.70
2019-06-08T18:42:43.142Z,1.40
2019-06-08T18:45:11.011Z,1.67
2019-06-08T18:47:39.335Z,3.67
2019-06-08T18:50:08.812Z,1.80
2019-06-08T18:52:36.027Z,1.20
2019-06-08T18:55:05.007Z,1.67
2019-06-08T18:57:31.350Z,2.00
2019-06-08T18:59:57.842Z,2.50
2019-06-08T19:02:25.914Z,2.67
2019-06-08T19:04:53.089Z,2.42
2019-06-08T19:07:19.818Z,2.37
2019-06-08T19:09:48.065Z,3.55
2019-06-08T19:12:16.915Z,2.02
2019-06-08T19:14:43.584Z,4.10
2019-06-08T19:17:10.740Z,2.08
2019-06-08T19:19:41.226Z,4.55
2019-06-08T19:22:08.522Z,1.90
2019-06-08T19:24:34.331Z,3.22
2019-06-08T19:27:01.547Z,1.65
2019-06-08T19:29:28.991Z,1.32
2019-06-08T19:31:57.291Z,1.45
2019-06-08T19:34:24.150Z,1.52
2019-06-08T19:36:54.165Z,1.45
2019-06-08T19:39:19.511Z,1.67
2019-06-08T19:41:46.934Z,1.73
2019-06-08T19:44:14.704Z,1.40
2019-06-08T19:46:42.436Z,1.30
2019-06-08T19:49:09.017Z,1.12
2019-06-08T19:51:38.204Z,1.15
2019-06-08T19:54:04.277Z,1.40
2019-06-08T19:56:30.895Z,1.37
2019-06-08T19:59:04.519Z,1.25
2019-06-08T20:01:27.693Z,1.20
2019-06-08T20:03:54.291Z,1.27
2019-06-08T20:06:21.312Z,1.27
2019-06-08T20:08:50.216Z,1.32
2019-06-08T20:11:17.294Z,1.42
2019-06-08T20:13:43.793Z,1.50
2019-06-08T20:16:10.495Z,1.55
2019-06-08T20:18:37.533Z,1.52
2019-06-08T20:21:04.307Z,1.40
2019-06-08T20:23:30.950Z,1.42
2019-06-08T20:26:00.617Z,1.70
2019-06-08T20:28:28.273Z,1.60
2019-06-08T20:30:54.495Z,1.25
2019-06-08T20:33:21.083Z,1.35
2019-06-08T20:35:48.521Z,1.10
2019-06-08T20:38:17.705Z,1.30
2019-06-08T20:40:44.414Z,1.53
2019-06-08T20:43:11.196Z,1.30
2019-06-08T20:45:38.119Z,1.30
2019-06-08T20:48:04.547Z,1.55
2019-06-08T20:50:30.831Z,1.30
2019-06-08T20:52:57.799Z,1.30
2019-06-08T20:55:24.130Z,1.25
2019-06-08T20:57:51.244Z,1.17
2019-06-08T21:00:18.929Z,1.67
2019-06-08T21:02:46.396Z,1.85
2019-06-08T21:05:13.456Z,1.42
2019-06-08T21:07:39.867Z,1.35
2019-06-08T21:10:08.570Z,1.45
2019-06-08T21:12:34.321Z,1.25
2019-06-08T21:15:00.698Z,1.55
2019-06-08T21:17:27.562Z,1.40
2019-06-08T21:19:55.576Z,1.85
2019-06-08T21:22:22.374Z,1.60
2019-06-08T21:24:51.995Z,1.20
2019-06-08T21:27:17.358Z,1.57
2019-06-08T21:29:49.093Z,1.40
2019-06-08T21:32:11.999Z,1.77
2019-06-08T21:34:38.314Z,1.45
2019-06-08T21:37:04.682Z,1.35
2019-06-08T21:39:30.923Z,1.67
2019-06-08T21:42:01.311Z,1.67
2019-06-08T21:44:27.854Z,1.50
2019-06-08T21:46:55.236Z,1.60
2019-06-08T21:49:22.368Z,1.60
2019-06-08T21:51:51.392Z,1.42
2019-06-08T21:54:17.587Z,1.63
2019-06-08T21:56:44.204Z,1.92
2019-06-08T21:59:10.755Z,1.60
2019-06-08T22:01:38.560Z,1.53
2019-06-08T22:04:05.079Z,1.27
2019-06-08T22:06:31.462Z,1.37
2019-06-08T22:09:00.815Z,1.30
2019-06-08T22:11:25.986Z,1.47
2019-06-08T22:13:52.799Z,1.70
2019-06-08T22:16:19.405Z,1.57
2019-06-08T22:18:47.474Z,1.52
2019-06-08T22:21:14.331Z,1.60
2019-06-08T22:23:40.636Z,1.65
2019-06-08T22:26:08.367Z,1.70
2019-06-08T22:28:34.813Z,2.00
2019-06-08T22:31:01.771Z,1.60
2019-06-08T22:33:28.220Z,1.57
2019-06-08T22:35:55.903Z,1.60
2019-06-08T22:38:22.659Z,2.00
2019-06-08T22:40:48.972Z,1.47
2019-06-08T22:43:17.956Z,1.47
2019-06-08T22:45:43.774Z,1.60
2019-06-08T22:48:10.007Z,1.55
2019-06-08T22:50:38.241Z,1.40
2019-06-08T22:53:04.509Z,1.50
2019-06-08T22:55:31.003Z,1.63
2019-06-08T22:57:59.905Z,1.50
2019-06-08T23:00:27.975Z,1.52
2019-06-08T23:02:54.941Z,1.50
2019-06-08T23:05:22.357Z,1.43
2019-06-08T23:07:48.905Z,1.60
2019-06-08T23:10:17.491Z,1.70
2019-06-08T23:12:44.031Z,1.20
2019-06-08T23:15:10.504Z,1.27
2019-06-08T23:17:38.613Z,1.50
2019-06-08T23:20:08.681Z,1.70
2019-06-08T23:22:35.206Z,1.60
2019-06-08T23:25:03.317Z,1.30
2019-06-08T23:27:29.983Z,1.43
2019-06-08T23:29:58.700Z,1.50
2019-06-08T23:32:24.787Z,1.10
2019-06-08T23:34:51.034Z,1.40
2019-06-08T23:37:18.286Z,1.00
2019-06-08T23:39:46.974Z,1.30
2019-06-08T23:42:13.260Z,1.23
2019-06-08T23:44:39.589Z,1.30
2019-06-08T23:47:06.135Z,1.10
2019-06-08T23:49:32.512Z,1.40
2019-06-08T23:52:01.141Z,1.47
2019-06-08T23:54:27.999Z,1.37
2019-06-08T23:56:54.520Z,1.53
2019-06-08T23:59:20.737Z,1.50
